Time;durP1;ratioP1;P1;durP2;ratioP2;P2;SDS_P1;SDS_P2;PMS_P1;PMS_P2;Temp;Humidity;BMP_temperature;BMP_pressure;BME280_temperature;BME280_humidity;BME280_pressure;Samples;Min_cycle;Max_cycle;Signal;HPM_P1;HPM_P2
2023/12/22 00:00:32;;;;;;;0.50;0.50;;;4.10;99.90;;;;;;5047880;28;20456;-74
2023/12/22 00:02:59;;;;;;;0.30;0.30;;;4.10;99.90;;;;;;5041663;28;20954;-76
2023/12/22 00:05:27;;;;;;;0.37;0.37;;;4.20;99.90;;;;;;5047595;28;20797;-76
2023/12/22 00:07:55;;;;;;;0.43;0.43;;;4.40;99.90;;;;;;5038635;28;20502;-74
2023/12/22 00:10:22;;;;;;;0.40;0.40;;;4.40;99.90;;;;;;5039763;28;20465;-74
2023/12/22 00:12:49;;;;;;;0.40;0.40;;;4.50;99.90;;;;;;5047774;28;20472;-75
2023/12/22 00:15:17;;;;;;;0.30;0.30;;;4.50;99.90;;;;;;5039931;28;20470;-74
2023/12/22 00:17:43;;;;;;;0.30;0.30;;;4.60;99.90;;;;;;5049203;28;20459;-74
2023/12/22 00:20:13;;;;;;;0.40;0.40;;;4.60;99.90;;;;;;5047885;28;20502;-74
2023/12/22 00:22:41;;;;;;;0.50;0.50;;;4.60;99.90;;;;;;5035372;28;20491;-72
2023/12/22 00:25:09;;;;;;;0.50;0.50;;;4.60;99.90;;;;;;5048762;28;20461;-72
2023/12/22 00:27:36;;;;;;;0.50;0.50;;;4.70;99.90;;;;;;5045310;28;20564;-72
2023/12/22 00:30:03;;;;;;;0.60;0.60;;;4.80;99.90;;;;;;5037912;28;20498;-72
2023/12/22 00:32:31;;;;;;;0.67;0.67;;;4.80;99.90;;;;;;5048928;28;20875;-73
2023/12/22 00:34:58;;;;;;;0.67;0.67;;;4.90;99.90;;;;;;5048650;28;20459;-73
2023/12/22 00:37:25;;;;;;;1.00;1.00;;;4.90;99.90;;;;;;5045422;28;20485;-72
2023/12/22 00:39:53;;;;;;;0.70;0.70;;;4.90;99.90;;;;;;5039547;28;20452;-74
2023/12/22 00:42:20;;;;;;;0.70;0.70;;;4.90;99.90;;;;;;5044653;28;20483;-73
2023/12/22 00:44:47;;;;;;;0.53;0.53;;;4.90;99.90;;;;;;5044627;28;20452;-73
2023/12/22 00:47:14;;;;;;;0.60;0.60;;;4.90;99.90;;;;;;5048399;28;20767;-73
2023/12/22 00:49:41;;;;;;;0.50;0.50;;;4.90;99.90;;;;;;5035340;28;20461;-73
2023/12/22 00:52:07;;;;;;;0.50;0.50;;;4.90;99.90;;;;;;5045640;28;20828;-73
2023/12/22 00:54:34;;;;;;;0.50;0.50;;;4.90;99.90;;;;;;5036899;28;20899;-73
2023/12/22 00:57:03;;;;;;;0.60;0.60;;;4.90;99.90;;;;;;5038138;28;20808;-73
2023/12/22 00:59:30;;;;;;;0.57;0.57;;;5.00;99.90;;;;;;5042185;28;20454;-73
2023/12/22 01:01:57;;;;;;;0.50;0.50;;;5.10;99.90;;;;;;5033652;28;20481;-73
2023/12/22 01:04:24;;;;;;;0.50;0.50;;;5.10;99.90;;;;;;5043745;28;20883;-73
2023/12/22 01:06:52;;;;;;;0.50;0.50;;;5.10;99.90;;;;;;5047401;28;20463;-73
2023/12/22 01:09:19;;;;;;;0.97;0.97;;;5.10;99.90;;;;;;5040890;28;20473;-72
2023/12/22 01:11:47;;;;;;;1.40;1.40;;;5.20;99.90;;;;;;5047357;28;20490;-74
2023/12/22 01:14:15;;;;;;;0.83;0.83;;;5.20;99.90;;;;;;5047238;28;20471;-74
2023/12/22 01:16:43;;;;;;;0.70;0.70;;;5.20;99.90;;;;;;5039541;28;20474;-74
2023/12/22 01:19:09;;;;;;;0.80;0.80;;;5.30;99.90;;;;;;5038254;28;20966;-73
2023/12/22 01:21:36;;;;;;;0.70;0.70;;;5.30;99.90;;;;;;5038095;28;20484;-73
2023/12/22 01:24:04;;;;;;;0.60;0.60;;;5.30;99.90;;;;;;5045837;28;20460;-73
2023/12/22 01:26:31;;;;;;;1.53;1.53;;;5.40;99.90;;;;;;5043083;28;20509;-73
2023/12/22 01:28:58;;;;;;;1.20;1.20;;;5.40;99.90;;;;;;5039882;28;20493;-74
2023/12/22 01:31:26;;;;;;;1.10;1.10;;;5.40;99.90;;;;;;5047261;28;20470;-74
2023/12/22 01:33:53;;;;;;;1.10;1.10;;;5.30;99.90;;;;;;5033166;28;20484;-73
2023/12/22 01:36:20;;;;;;;0.90;0.90;;;5.30;99.90;;;;;;5047128;28;20473;-74
2023/12/22 01:38:47;;;;;;;1.00;1.00;;;5.30;99.90;;;;;;5045000;28;20468;-73
2023/12/22 01:41:15;;;;;;;0.90;0.90;;;5.30;99.90;;;;;;5038215;28;20503;-73
2023/12/22 01:43:42;;;;;;;0.80;0.80;;;5.20;99.90;;;;;;5040853;28;20456;-73
2023/12/22 01:46:08;;;;;;;0.90;0.90;;;5.20;99.90;;;;;;5042004;28;21024;-73
2023/12/22 01:48:37;;;;;;;0.90;0.90;;;5.20;99.90;;;;;;5041255;28;20474;-73
2023/12/22 01:51:06;;;;;;;0.90;0.90;;;5.10;99.90;;;;;;5037937;28;20469;-73
2023/12/22 01:53:33;;;;;;;1.07;1.07;;;5.10;99.90;;;;;;5040466;28;20465;-73
2023/12/22 01:56:02;;;;;;;1.10;1.10;;;5.00;99.90;;;;;;5044377;28;20460;-73
2023/12/22 01:58:31;;;;;;;1.10;1.10;;;4.90;99.90;;;;;;5045597;28;20869;-73
2023/12/22 02:00:58;;;;;;;1.00;1.00;;;4.90;99.90;;;;;;5037590;28;20460;-71
2023/12/22 02:03:26;;;;;;;1.10;1.10;;;4.90;99.90;;;;;;5046286;28;20883;-72
2023/12/22 02:05:54;;;;;;;1.30;1.30;;;5.00;99.90;;;;;;5044565;28;20454;-72
2023/12/22 02:08:23;;;;;;;1.43;1.43;;;5.10;99.90;;;;;;5038248;28;20467;-72
2023/12/22 02:10:51;;;;;;;1.20;1.20;;;5.20;99.90;;;;;;5042571;28;20461;-72
2023/12/22 02:13:17;;;;;;;1.60;1.60;;;5.20;99.90;;;;;;5034002;28;20471;-73
2023/12/22 02:15:45;;;;;;;1.10;1.10;;;5.30;99.90;;;;;;5043107;28;20464;-72
2023/12/22 02:18:17;;;;;;;1.40;1.40;;;5.30;99.90;;;;;;5046144;28;20641;-72
2023/12/22 02:20:44;;;;;;;1.40;1.40;;;5.30;99.90;;;;;;5031790;28;20565;-72
2023/12/22 02:23:13;;;;;;;1.20;1.20;;;5.40;99.90;;;;;;5044231;28;20571;-72
2023/12/22 02:25:39;;;;;;;1.60;1.60;;;5.40;99.90;;;;;;5042796;28;20469;-72
2023/12/22 02:28:10;;;;;;;1.10;1.10;;;5.50;99.90;;;;;;5033408;28;20480;-72
2023/12/22 02:30:50;;;;;;;1.43;1.43;;;5.60;99.90;;;;;;5045620;28;20479;-72
2023/12/22 02:33:19;;;;;;;1.60;1.60;;;5.50;99.90;;;;;;5039445;28;20511;-72
2023/12/22 02:35:50;;;;;;;1.50;1.50;;;5.50;99.90;;;;;;5044437;28;20453;-73
2023/12/22 02:38:20;;;;;;;1.73;1.73;;;5.60;99.90;;;;;;5033393;28;20788;-73
2023/12/22 02:40:47;;;;;;;1.90;1.90;;;5.60;99.90;;;;;;5039476;28;20456;-72
2023/12/22 02:43:15;;;;;;;2.00;2.00;;;5.60;99.90;;;;;;5044648;28;20488;-73
2023/12/22 02:45:42;;;;;;;2.20;2.20;;;5.70;99.90;;;;;;5040502;28;20460;-73
2023/12/22 02:48:10;;;;;;;2.50;2.50;;;5.70;99.90;;;;;;5045869;28;20491;-73
2023/12/22 02:50:37;;;;;;;2.80;2.80;;;5.70;99.90;;;;;;5046009;28;20464;-72
2023/12/22 02:53:04;;;;;;;2.80;2.80;;;5.70;99.90;;;;;;5043331;28;20472;-72
2023/12/22 02:55:33;;;;;;;2.97;2.97;;;5.80;99.90;;;;;;5034768;28;20457;-72
2023/12/22 02:58:00;;;;;;;3.17;3.17;;;5.80;99.90;;;;;;5039262;28;20478;-72
2023/12/22 03:00:26;;;;;;;3.90;3.90;;;5.90;99.90;;;;;;5044718;28;20451;-72
2023/12/22 03:02:53;;;;;;;3.97;3.97;;;5.90;99.90;;;;;;5038948;28;20490;-73
2023/12/22 03:05:20;;;;;;;4.40;4.40;;;5.90;99.90;;;;;;5048859;28;20823;-72
2023/12/22 03:07:47;;;;;;;4.20;4.20;;;5.90;99.90;;;;;;5045288;28;20825;-72
2023/12/22 03:10:15;;;;;;;4.57;4.57;;;6.00;99.90;;;;;;5048814;28;20494;-71
2023/12/22 03:12:44;;;;;;;5.30;5.20;;;6.00;99.90;;;;;;5037828;28;20464;-72
2023/12/22 03:15:11;;;;;;;5.30;5.20;;;6.10;99.90;;;;;;5038793;28;20468;-72
2023/12/22 03:17:38;;;;;;;5.40;5.30;;;6.10;99.90;;;;;;5049001;28;20452;-72
2023/12/22 03:20:06;;;;;;;5.70;5.60;;;6.20;99.90;;;;;;5049928;28;20456;-72
2023/12/22 03:22:32;;;;;;;5.80;5.70;;;6.20;99.90;;;;;;5043568;28;20973;-72
2023/12/22 03:25:00;;;;;;;5.60;5.50;;;6.30;99.90;;;;;;5048975;28;20456;-72
2023/12/22 03:27:26;;;;;;;9.20;9.00;;;6.30;99.90;;;;;;5039095;28;20860;-71
2023/12/22 03:29:55;;;;;;;11.27;10.97;;;6.40;99.90;;;;;;5032478;28;20577;-71
2023/12/22 03:32:22;;;;;;;12.70;12.30;;;6.20;99.90;;;;;;5049065;28;20577;-71
2023/12/22 03:34:49;;;;;;;13.33;12.93;;;6.30;99.90;;;;;;5043537;28;20568;-71
2023/12/22 03:37:17;;;;;;;14.87;14.33;;;6.20;99.90;;;;;;5049417;28;20869;-71
2023/12/22 03:39:43;;;;;;;15.60;15.00;;;6.20;99.90;;;;;;5041909;28;20467;-71
2023/12/22 03:42:10;;;;;;;16.47;15.77;;;6.10;99.90;;;;;;5036337;28;20483;-71
2023/12/22 03:44:37;;;;;;;17.40;16.70;;;6.00;99.90;;;;;;5038168;28;20566;-72
2023/12/22 03:47:05;;;;;;;17.60;16.80;;;6.00;99.90;;;;;;5049066;28;20502;-72
2023/12/22 03:49:32;;;;;;;17.43;16.73;;;5.80;99.90;;;;;;5042620;28;20472;-72
2023/12/22 03:51:58;;;;;;;18.20;17.40;;;5.80;99.90;;;;;;5037560;28;20455;-72
2023/12/22 03:54:25;;;;;;;17.57;16.87;;;5.70;99.90;;;;;;5039415;28;20467;-72
2023/12/22 03:56:52;;;;;;;18.10;17.30;;;5.70;99.90;;;;;;5042210;28;20468;-72
2023/12/22 03:59:19;;;;;;;18.00;17.20;;;5.70;99.90;;;;;;5048895;28;20451;-72
2023/12/22 04:01:51;;;;;;;18.30;17.50;;;5.70;99.90;;;;;;5044865;28;21022;-71
2023/12/22 04:04:21;;;;;;;17.87;17.10;;;5.70;99.90;;;;;;5045251;28;20833;-72
2023/12/22 04:06:48;;;;;;;17.80;17.10;;;5.70;99.90;;;;;;5044364;28;20618;-72
2023/12/22 04:09:15;;;;;;;17.40;16.70;;;5.70;99.90;;;;;;5036124;28;20479;-72
2023/12/22 04:11:42;;;;;;;17.33;16.63;;;5.60;99.90;;;;;;5038847;28;20804;-71
2023/12/22 04:14:09;;;;;;;17.30;16.60;;;5.60;99.90;;;;;;5047923;28;20926;-72
2023/12/22 04:16:38;;;;;;;17.10;16.40;;;5.60;99.90;;;;;;5046978;28;20927;-72
2023/12/22 04:19:05;;;;;;;17.50;16.80;;;5.70;99.90;;;;;;5048269;28;20459;-71
2023/12/22 04:21:33;;;;;;;16.63;16.03;;;5.70;99.90;;;;;;5038616;28;20478;-72
2023/12/22 04:24:00;;;;;;;16.40;15.80;;;5.80;99.90;;;;;;5041682;28;20505;-72
2023/12/22 04:26:27;;;;;;;16.20;15.60;;;5.90;99.90;;;;;;5044454;28;20852;-72
2023/12/22 04:28:54;;;;;;;16.00;15.40;;;5.90;99.90;;;;;;5046284;28;21024;-71
2023/12/22 04:31:21;;;;;;;14.27;13.87;;;6.00;99.90;;;;;;5033775;28;20457;-71
2023/12/22 04:33:48;;;;;;;13.57;13.17;;;6.00;99.90;;;;;;5046052;28;20820;-72
2023/12/22 04:36:15;;;;;;;13.60;13.20;;;6.10;99.90;;;;;;5043928;28;21043;-71
2023/12/22 04:38:43;;;;;;;12.17;11.87;;;6.30;99.90;;;;;;5042632;28;20500;-72
2023/12/22 04:41:10;;;;;;;11.93;11.63;;;6.40;99.90;;;;;;5040547;28;20460;-72
2023/12/22 04:43:37;;;;;;;12.03;11.73;;;6.50;99.90;;;;;;5032771;28;20879;-71
2023/12/22 04:46:04;;;;;;;11.57;11.27;;;6.50;99.90;;;;;;5041516;28;20806;-71
2023/12/22 04:48:32;;;;;;;11.90;11.60;;;6.60;99.90;;;;;;5042872;28;20893;-72
2023/12/22 04:50:59;;;;;;;11.40;11.10;;;6.60;99.90;;;;;;5044755;28;20547;-72
2023/12/22 04:53:26;;;;;;;11.17;10.87;;;6.70;99.90;;;;;;5039643;28;20465;-72
2023/12/22 04:55:55;;;;;;;11.40;11.10;;;6.80;99.90;;;;;;5043025;28;20601;-72
2023/12/22 04:58:22;;;;;;;10.30;10.10;;;6.90;99.90;;;;;;5037732;28;20833;-72
2023/12/22 05:00:49;;;;;;;10.30;10.10;;;6.90;99.90;;;;;;5046631;28;20464;-72
2023/12/22 05:03:16;;;;;;;10.00;9.80;;;7.00;99.90;;;;;;5047538;28;20838;-71
2023/12/22 05:05:43;;;;;;;10.53;10.33;;;7.10;99.90;;;;;;5032360;28;20465;-72
2023/12/22 05:08:10;;;;;;;9.80;9.60;;;7.20;99.90;;;;;;5038939;28;20971;-73
2023/12/22 05:10:37;;;;;;;9.70;9.50;;;7.30;99.90;;;;;;5036308;28;20868;-71
2023/12/22 05:13:06;;;;;;;8.33;8.23;;;7.30;99.90;;;;;;5037087;28;20460;-72
2023/12/22 05:15:33;;;;;;;8.63;8.53;;;7.40;99.90;;;;;;5046284;28;20456;-71
2023/12/22 05:17:59;;;;;;;8.97;8.80;;;7.40;99.90;;;;;;5041737;28;20460;-71
2023/12/22 05:20:26;;;;;;;8.57;8.47;;;7.60;99.90;;;;;;5040989;28;20465;-71
2023/12/22 05:22:54;;;;;;;8.70;8.60;;;7.60;99.90;;;;;;5039862;28;20484;-72
2023/12/22 05:25:22;;;;;;;8.87;8.73;;;7.60;99.90;;;;;;5040043;28;20461;-71
2023/12/22 05:27:49;;;;;;;9.03;8.83;;;7.60;99.90;;;;;;5045377;28;20864;-71
2023/12/22 05:30:17;;;;;;;9.27;9.07;;;7.70;99.90;;;;;;5037491;28;20594;-71
2023/12/22 05:32:44;;;;;;;9.00;8.80;;;7.70;99.90;;;;;;5031621;28;20488;-71
2023/12/22 05:35:11;;;;;;;9.63;9.43;;;7.80;99.90;;;;;;5042663;28;20471;-71
2023/12/22 05:37:38;;;;;;;9.53;9.33;;;7.80;99.90;;;;;;5040920;28;20457;-71
2023/12/22 05:40:07;;;;;;;9.50;9.30;;;7.90;99.90;;;;;;5036376;28;20475;-71
2023/12/22 05:42:34;;;;;;;9.43;9.23;;;7.90;99.90;;;;;;5042213;28;20899;-71
2023/12/22 05:45:01;;;;;;;9.70;9.50;;;7.90;99.90;;;;;;5028631;28;20619;-71
2023/12/22 05:47:30;;;;;;;9.20;9.00;;;7.90;99.90;;;;;;5044008;28;20464;-71
2023/12/22 05:49:56;;;;;;;9.50;9.30;;;7.80;99.90;;;;;;5039856;28;20970;-72
2023/12/22 05:52:24;;;;;;;9.53;9.33;;;7.80;99.90;;;;;;5044534;28;20450;-71
2023/12/22 05:54:51;;;;;;;8.87;8.70;;;7.90;99.90;;;;;;5046331;28;20804;-71
2023/12/22 05:57:18;;;;;;;9.00;8.80;;;7.80;99.90;;;;;;5045922;28;20514;-71
2023/12/22 05:59:45;;;;;;;9.47;9.27;;;7.80;99.90;;;;;;5041928;28;20452;-71
2023/12/22 06:02:13;;;;;;;9.17;8.97;;;7.90;99.90;;;;;;5052526;28;20462;-70
2023/12/22 06:04:41;;;;;;;9.17;8.97;;;7.90;99.90;;;;;;5034184;28;20473;-70
2023/12/22 06:07:08;;;;;;;9.37;9.17;;;7.90;99.90;;;;;;5046746;28;20457;-72
2023/12/22 06:09:35;;;;;;;8.97;8.77;;;7.90;99.90;;;;;;5036192;28;20487;-72
2023/12/22 06:12:02;;;;;;;8.80;8.70;;;7.90;99.90;;;;;;5043153;28;20454;-72
2023/12/22 06:14:29;;;;;;;8.17;8.07;;;7.80;99.90;;;;;;5040061;28;20461;-72
2023/12/22 06:16:57;;;;;;;8.57;8.47;;;7.90;99.90;;;;;;5038183;28;20465;-73
2023/12/22 06:19:28;;;;;;;8.43;8.33;;;7.80;99.90;;;;;;5039460;28;20471;-72
2023/12/22 06:21:57;;;;;;;14.17;13.67;;;7.80;99.90;;;;;;5033847;28;20457;-68
2023/12/22 06:24:26;;;;;;;21.10;20.00;;;7.70;99.90;;;;;;5036978;28;20487;-71
2023/12/22 06:26:54;;;;;;;20.17;19.17;;;6.40;99.90;;;;;;5040860;28;20464;-72
2023/12/22 06:29:21;;;;;;;20.57;19.57;;;6.20;99.90;;;;;;5042882;28;20886;-72
2023/12/22 06:31:50;;;;;;;21.30;20.20;;;6.20;99.90;;;;;;5040628;28;20479;-72
2023/12/22 06:34:32;;;;;;;22.10;21.00;;;6.20;99.90;;;;;;5036654;28;20486;-72
2023/12/22 06:37:00;;;;;;;23.67;22.37;;;6.30;99.90;;;;;;5029961;28;20460;-73
2023/12/22 06:39:26;;;;;;;25.60;24.10;;;6.10;99.90;;;;;;5038631;28;20947;-73
2023/12/22 06:41:54;;;;;;;21.70;20.60;;;5.90;99.90;;;;;;5041895;28;20465;-73
2023/12/22 06:44:20;;;;;;;21.60;20.50;;;5.90;99.90;;;;;;5040667;28;20495;-73
2023/12/22 06:46:47;;;;;;;23.37;22.17;;;5.90;99.90;;;;;;5037536;28;20978;-73
2023/12/22 06:49:15;;;;;;;25.47;24.07;;;5.90;99.90;;;;;;5045948;28;20468;-73
2023/12/22 06:51:42;;;;;;;24.30;23.00;;;6.00;99.90;;;;;;5042903;28;20460;-72
2023/12/22 06:54:11;;;;;;;25.40;24.00;;;6.10;99.90;;;;;;5030737;28;20460;-73
2023/12/22 06:56:39;;;;;;;28.00;26.40;;;6.30;99.90;;;;;;5044077;28;20487;-73
2023/12/22 06:59:07;;;;;;;29.07;27.37;;;6.40;99.90;;;;;;5038265;28;20462;-74
2023/12/22 07:01:35;;;;;;;30.07;28.27;;;6.50;99.90;;;;;;5042759;28;20466;-73
2023/12/22 07:04:04;;;;;;;31.37;29.47;;;6.60;99.90;;;;;;5035801;28;20473;-73
2023/12/22 07:06:33;;;;;;;31.40;29.50;;;6.70;99.90;;;;;;5030311;28;20470;-73
2023/12/22 07:09:33;;;;;;;33.17;31.07;;;6.80;99.90;;;;;;5039547;28;20475;-73
2023/12/22 07:11:59;;;;;;;33.50;31.40;;;6.90;99.90;;;;;;5042091;28;20484;-73
2023/12/22 07:14:26;;;;;;;34.73;32.43;;;7.00;99.90;;;;;;5044671;28;21093;-73
2023/12/22 07:16:54;;;;;;;35.80;33.50;;;7.00;99.90;;;;;;5042316;28;20464;-73
2023/12/22 07:19:21;;;;;;;35.33;33.10;;;7.10;99.90;;;;;;5046031;28;20902;-73
2023/12/22 07:21:49;;;;;;;35.00;32.77;;;7.10;99.90;;;;;;5036328;28;21090;-73
2023/12/22 07:24:16;;;;;;;35.93;33.63;;;7.20;99.90;;;;;;5036597;28;20480;-73
2023/12/22 07:26:45;;;;;;;35.27;33.00;;;7.30;99.90;;;;;;5038993;28;20813;-73
2023/12/22 07:29:13;;;;;;;36.63;34.33;;;7.30;99.90;;;;;;5044571;28;20819;-72
2023/12/22 07:31:40;;;;;;;37.40;35.00;;;7.30;99.90;;;;;;5042884;28;20851;-72
2023/12/22 07:34:07;;;;;;;38.67;36.17;;;7.30;99.90;;;;;;5045445;28;20467;-73
2023/12/22 07:36:35;;;;;;;37.30;34.90;;;7.30;99.90;;;;;;5030349;28;20461;-73
2023/12/22 07:39:02;;;;;;;35.07;32.77;;;7.30;99.90;;;;;;5045803;28;20823;-73
2023/12/22 07:41:30;;;;;;;34.43;32.23;;;7.30;99.90;;;;;;5042463;28;20479;-74
2023/12/22 07:43:58;;;;;;;33.27;31.17;;;7.30;99.90;;;;;;5035893;28;20489;-73
2023/12/22 07:46:24;;;;;;;32.40;30.40;;;7.20;99.90;;;;;;5044003;28;20928;-73
2023/12/22 07:48:51;;;;;;;31.37;29.37;;;7.20;99.90;;;;;;5043755;28;20448;-74
2023/12/22 07:51:18;;;;;;;31.00;29.10;;;7.20;99.90;;;;;;5041343;28;20452;-73
2023/12/22 07:53:46;;;;;;;31.43;29.43;;;7.30;99.90;;;;;;5041040;28;20461;-73
2023/12/22 07:56:13;;;;;;;30.50;28.60;;;7.30;99.90;;;;;;5043635;28;20471;-73
2023/12/22 07:58:40;;;;;;;31.47;29.50;;;7.40;99.90;;;;;;5046303;28;20464;-73
2023/12/22 08:01:08;;;;;;;31.47;29.47;;;7.40;99.90;;;;;;5048534;28;20450;-73
2023/12/22 08:03:37;;;;;;;32.30;30.30;;;7.40;99.90;;;;;;5038158;28;20495;-73
2023/12/22 08:06:04;;;;;;;33.20;31.10;;;7.40;99.90;;;;;;5046943;28;21022;-73
2023/12/22 08:08:33;;;;;;;32.50;30.50;;;7.50;99.90;;;;;;5042340;28;20444;-73
2023/12/22 08:11:00;;;;;;;31.57;29.67;;;7.50;99.90;;;;;;5042961;28;20457;-74
2023/12/22 08:13:27;;;;;;;30.50;28.60;;;7.50;99.90;;;;;;5045538;28;20477;-73
2023/12/22 08:15:54;;;;;;;30.40;28.50;;;7.50;99.90;;;;;;5039160;28;20541;-73
2023/12/22 08:18:22;;;;;;;29.50;27.70;;;7.50;99.90;;;;;;5042582;28;20543;-73
2023/12/22 08:20:49;;;;;;;30.17;28.30;;;7.50;99.90;;;;;;5043646;28;20472;-73
2023/12/22 08:23:16;;;;;;;29.60;27.80;;;7.60;99.90;;;;;;5043933;28;20483;-74
2023/12/22 08:25:43;;;;;;;29.90;28.10;;;7.60;99.90;;;;;;5040331;28;20449;-73
2023/12/22 08:28:12;;;;;;;29.00;27.30;;;7.60;99.90;;;;;;5042800;28;20483;-73
2023/12/22 08:30:39;;;;;;;28.07;26.47;;;7.60;99.90;;;;;;5031558;28;20572;-73
2023/12/22 08:33:06;;;;;;;27.50;25.90;;;7.60;99.90;;;;;;5047031;28;20484;-73
2023/12/22 08:35:36;;;;;;;27.57;25.97;;;7.70;99.90;;;;;;5048709;28;20954;-73
2023/12/22 08:38:03;;;;;;;27.30;25.70;;;7.70;99.90;;;;;;5043728;28;20465;-73
2023/12/22 08:40:30;;;;;;;28.13;26.53;;;7.80;99.90;;;;;;5034911;28;20519;-73
2023/12/22 08:42:59;;;;;;;26.80;25.20;;;7.80;99.90;;;;;;5039144;28;20830;-74
2023/12/22 08:45:28;;;;;;;27.20;25.60;;;7.90;99.90;;;;;;5044374;28;20525;-73
2023/12/22 08:47:56;;;;;;;27.80;26.20;;;7.90;99.90;;;;;;5048566;28;20510;-73
2023/12/22 08:50:23;;;;;;;27.43;25.83;;;7.90;99.90;;;;;;5049254;28;20541;-73
2023/12/22 08:52:51;;;;;;;26.83;25.33;;;7.90;99.90;;;;;;5036928;28;20449;-73
2023/12/22 08:55:18;;;;;;;27.10;25.60;;;7.90;99.90;;;;;;5043840;28;20547;-73
2023/12/22 08:57:45;;;;;;;26.23;24.83;;;7.90;99.90;;;;;;5040884;28;21121;-73
2023/12/22 09:00:13;;;;;;;25.90;24.60;;;8.00;99.90;;;;;;5045343;28;20461;-73
2023/12/22 09:02:40;;;;;;;25.60;24.30;;;8.00;99.90;;;;;;5038431;28;20465;-73
2023/12/22 09:05:08;;;;;;;24.73;23.53;;;8.00;99.90;;;;;;5042841;28;21084;-73
2023/12/22 09:07:35;;;;;;;24.80;23.60;;;8.00;99.90;;;;;;5036139;28;20468;-72
2023/12/22 09:10:03;;;;;;;24.53;23.33;;;8.10;99.90;;;;;;5042618;28;20467;-73
2023/12/22 09:12:30;;;;;;;23.43;22.33;;;8.10;99.90;;;;;;5047042;28;20485;-72
2023/12/22 09:14:58;;;;;;;24.50;23.40;;;8.10;99.90;;;;;;5036533;28;20457;-73
2023/12/22 09:17:27;;;;;;;23.63;22.53;;;8.20;99.90;;;;;;5048039;28;20456;-72
2023/12/22 09:19:54;;;;;;;23.40;22.30;;;8.30;99.90;;;;;;5047075;28;20456;-75
2023/12/22 09:22:21;;;;;;;22.93;21.83;;;8.30;99.90;;;;;;5038230;28;20466;-76
2023/12/22 09:24:48;;;;;;;22.23;21.23;;;8.30;99.90;;;;;;5044405;28;21096;-72
2023/12/22 09:27:16;;;;;;;21.60;20.60;;;8.40;99.90;;;;;;5038172;28;20855;-73
2023/12/22 09:29:43;;;;;;;22.10;21.10;;;8.40;99.90;;;;;;5037953;28;20488;-75
2023/12/22 09:32:10;;;;;;;21.30;20.40;;;8.40;99.90;;;;;;5046463;28;20522;-72
2023/12/22 09:34:38;;;;;;;22.10;21.10;;;8.50;99.90;;;;;;5036901;28;20457;-73
2023/12/22 09:37:05;;;;;;;21.30;20.40;;;8.50;99.90;;;;;;5039087;28;20473;-72
2023/12/22 09:39:32;;;;;;;20.33;19.53;;;8.50;99.90;;;;;;5048737;28;20461;-72
2023/12/22 09:41:59;;;;;;;20.13;19.33;;;8.60;99.90;;;;;;5034980;28;20456;-73
2023/12/22 09:44:34;;;;;;;19.00;18.30;;;8.60;99.90;;;;;;5041810;28;20861;-72
2023/12/22 09:47:04;;;;;;;17.40;16.80;;;8.70;99.90;;;;;;5043407;28;20455;-72
2023/12/22 09:49:32;;;;;;;16.73;16.13;;;8.70;99.90;;;;;;5039211;28;20450;-72
2023/12/22 09:51:59;;;;;;;15.73;15.23;;;8.70;99.90;;;;;;5047986;28;20460;-73
2023/12/22 09:54:26;;;;;;;16.10;15.60;;;8.70;99.90;;;;;;5042365;28;20713;-72
2023/12/22 09:56:54;;;;;;;16.30;15.80;;;8.60;99.90;;;;;;5031161;28;20466;-74
2023/12/22 09:59:24;;;;;;;15.70;15.20;;;8.50;99.90;;;;;;5047212;28;20946;-71
2023/12/22 10:01:53;;;;;;;18.17;17.47;;;8.50;99.90;;;;;;5046865;28;20842;-71
2023/12/22 10:04:20;;;;;;;19.10;18.30;;;8.50;99.90;;;;;;5036733;28;20481;-72
2023/12/22 10:06:49;;;;;;;19.57;18.77;;;8.50;99.90;;;;;;5038463;28;20473;-72
2023/12/22 10:09:16;;;;;;;19.83;18.97;;;8.50;99.90;;;;;;5042334;28;20835;-75
2023/12/22 10:11:45;;;;;;;20.47;19.57;;;8.50;99.90;;;;;;5042791;28;20453;-72
2023/12/22 10:14:13;;;;;;;20.80;19.90;;;8.50;99.90;;;;;;5036510;28;20464;-73
2023/12/22 10:16:41;;;;;;;20.53;19.63;;;8.60;99.90;;;;;;5044918;28;20506;-73
2023/12/22 10:19:10;;;;;;;20.97;20.07;;;8.60;99.90;;;;;;5047443;28;20992;-69
2023/12/22 10:21:36;;;;;;;20.90;20.00;;;8.60;99.90;;;;;;5034904;28;20473;-73
2023/12/22 10:24:04;;;;;;;21.50;20.50;;;8.70;99.90;;;;;;5040765;28;21024;-72
2023/12/22 10:26:31;;;;;;;21.97;20.97;;;8.60;99.90;;;;;;5032922;28;20465;-73
2023/12/22 10:28:57;;;;;;;22.33;21.23;;;8.60;99.90;;;;;;5047392;28;20488;-72
2023/12/22 10:31:25;;;;;;;22.40;21.30;;;8.60;99.90;;;;;;5043678;28;20479;-73
2023/12/22 10:33:55;;;;;;;22.23;21.13;;;8.60;99.90;;;;;;5038887;28;20963;-73
2023/12/22 10:36:23;;;;;;;22.50;21.40;;;8.60;99.90;;;;;;5045765;28;20564;-75
2023/12/22 10:38:50;;;;;;;22.40;21.30;;;8.60;99.90;;;;;;5034004;28;20463;-73
2023/12/22 10:41:17;;;;;;;21.80;20.80;;;8.70;99.90;;;;;;5042348;28;20456;-74
2023/12/22 10:43:44;;;;;;;22.50;21.40;;;8.70;99.90;;;;;;5040099;28;20460;-74
2023/12/22 10:46:13;;;;;;;22.60;21.50;;;8.70;99.90;;;;;;5043903;28;20452;-74
2023/12/22 10:48:41;;;;;;;21.93;20.93;;;8.80;99.90;;;;;;5037657;28;20527;-70
2023/12/22 10:51:10;;;;;;;22.03;21.03;;;8.80;99.90;;;;;;5038936;28;20460;-72
2023/12/22 10:53:41;;;;;;;21.97;20.97;;;8.90;99.90;;;;;;5042948;28;20454;-74
2023/12/22 10:56:09;;;;;;;22.13;21.13;;;8.90;99.90;;;;;;5035488;28;20539;-72
2023/12/22 10:58:36;;;;;;;21.80;20.80;;;8.90;99.90;;;;;;5032599;28;20514;-73
2023/12/22 11:01:04;;;;;;;22.00;21.00;;;8.90;99.90;;;;;;5037174;28;20460;-73
2023/12/22 11:03:34;;;;;;;21.47;20.57;;;9.00;99.90;;;;;;5039769;28;20472;-75
2023/12/22 11:06:05;;;;;;;21.80;20.80;;;9.00;99.90;;;;;;5044916;28;20491;-73
2023/12/22 11:08:33;;;;;;;21.67;20.67;;;9.00;99.90;;;;;;5042704;28;20455;-73
2023/12/22 11:11:06;;;;;;;22.00;21.00;;;9.00;99.90;;;;;;5038042;28;20959;-73
2023/12/22 11:13:37;;;;;;;22.07;21.07;;;9.10;99.90;;;;;;5041581;28;20486;-72
2023/12/22 11:16:06;;;;;;;22.40;21.40;;;9.00;99.90;;;;;;5044038;28;20460;-72
2023/12/22 11:18:34;;;;;;;21.10;20.20;;;9.10;99.90;;;;;;5042279;28;20446;-75
2023/12/22 11:21:03;;;;;;;20.90;20.00;;;9.10;99.90;;;;;;5037942;28;20810;-73
2023/12/22 11:23:33;;;;;;;20.23;19.43;;;9.20;99.90;;;;;;5036982;28;20522;-75
2023/12/22 11:26:03;;;;;;;19.33;18.53;;;9.20;99.90;;;;;;5046011;28;20962;-74
2023/12/22 11:28:32;;;;;;;18.60;17.90;;;9.30;99.90;;;;;;5036300;28;20460;-77
2023/12/22 11:31:00;;;;;;;18.00;17.30;;;9.40;99.90;;;;;;5046896;28;20456;-73
2023/12/22 11:33:29;;;;;;;17.10;16.50;;;9.40;99.90;;;;;;5039896;28;20480;-75
2023/12/22 11:35:57;;;;;;;16.50;15.90;;;9.50;99.90;;;;;;5038005;28;20986;-73
2023/12/22 11:38:23;;;;;;;16.03;15.53;;;9.50;99.90;;;;;;5048597;28;20459;-72
2023/12/22 11:40:53;;;;;;;17.80;17.10;;;9.50;99.90;;;;;;5039913;28;20465;-72
2023/12/22 11:43:22;;;;;;;18.00;17.30;;;9.50;99.90;;;;;;5037625;28;20574;-73
2023/12/22 11:45:50;;;;;;;18.60;17.90;;;9.50;99.90;;;;;;5038056;28;20491;-71
2023/12/22 11:48:17;;;;;;;18.80;18.00;;;9.40;99.90;;;;;;5040690;28;20456;-73
2023/12/22 11:50:44;;;;;;;18.80;18.00;;;9.40;99.90;;;;;;5038814;28;20452;-73
2023/12/22 11:53:22;;;;;;;18.73;17.93;;;9.50;99.90;;;;;;5040216;28;20496;-70
2023/12/22 11:55:59;;;;;;;18.83;18.03;;;9.40;99.90;;;;;;5048026;28;20452;-71
2023/12/22 11:58:38;;;;;;;19.03;18.23;;;9.50;99.90;;;;;;5051483;28;20464;-73
2023/12/22 12:01:08;;;;;;;18.17;17.47;;;9.50;99.90;;;;;;5038223;28;20523;-71
2023/12/22 12:03:38;;;;;;;18.30;17.50;;;9.60;99.90;;;;;;5034751;28;20468;-71
2023/12/22 12:06:15;;;;;;;17.53;16.83;;;9.70;99.90;;;;;;5042972;28;20583;-72
2023/12/22 12:08:43;;;;;;;17.77;17.07;;;9.70;99.90;;;;;;5039392;28;20456;-72
2023/12/22 12:11:10;;;;;;;16.90;16.20;;;9.70;99.90;;;;;;5047181;28;20459;-72
2023/12/22 12:13:45;;;;;;;15.83;15.23;;;9.80;99.90;;;;;;5045718;28;20460;-73
2023/12/22 12:16:13;;;;;;;14.60;14.10;;;9.80;99.90;;;;;;5041449;28;20476;-72
2023/12/22 12:18:40;;;;;;;14.47;13.97;;;9.80;99.90;;;;;;5040492;28;20963;-75
2023/12/22 12:21:08;;;;;;;13.20;12.80;;;9.80;99.90;;;;;;5029775;28;20512;-73
2023/12/22 12:23:35;;;;;;;12.80;12.40;;;9.90;99.90;;;;;;5047086;28;21043;-74
2023/12/22 12:26:02;;;;;;;12.23;11.93;;;9.90;99.90;;;;;;5035056;28;20483;-75
2023/12/22 12:28:31;;;;;;;11.70;11.40;;;10.00;99.90;;;;;;5047516;28;20457;-72
2023/12/22 12:31:01;;;;;;;11.40;11.10;;;10.00;99.90;;;;;;5043531;28;20521;-73
2023/12/22 12:33:29;;;;;;;11.33;11.03;;;10.00;99.90;;;;;;5039878;28;20512;-74
2023/12/22 12:35:58;;;;;;;11.13;10.83;;;10.10;99.90;;;;;;5043514;28;20456;-74
2023/12/22 12:38:42;;;;;;;11.30;11.00;;;10.10;99.90;;;;;;5039610;28;20464;-72
2023/12/22 12:41:11;;;;;;;10.17;9.97;;;10.10;99.90;;;;;;5048313;28;20463;-74
2023/12/22 12:43:43;;;;;;;10.00;9.80;;;10.10;99.90;;;;;;5047003;28;20458;-72
2023/12/22 12:46:11;;;;;;;9.33;9.13;;;10.10;99.90;;;;;;5036619;28;20499;-75